Time;durP1;ratioP1;P1;durP2;ratioP2;P2;SDS_P1;SDS_P2;PMS_P1;PMS_P2;Temp;Humidity;BMP_temperature;BMP_pressure;BME280_temperature;BME280_humidity;BME280_pressure;Samples;Min_cycle;Max_cycle;Signal;HPM_P1;HPM_P2
2021/03/06 00:00:19;;;;;;;4.90;1.60;;;15.00;49.40;;;;;;5071535;28;20021;-63
2021/03/06 00:02:45;;;;;;;1.77;1.17;;;15.00;69.90;;;;;;5071468;28;20458;-63
2021/03/06 00:05:12;;;;;;;3.00;1.10;;;15.00;49.50;;;;;;5071512;28;20075;-63
2021/03/06 00:07:38;;;;;;;1.83;1.27;;;15.00;49.50;;;;;;5071532;28;20024;-63
2021/03/06 00:10:05;;;;;;;2.97;1.20;;;14.90;49.50;;;;;;5071496;28;20108;-63
2021/03/06 00:12:31;;;;;;;4.15;1.15;;;13.60;48.90;;;;;;5071219;28;20558;-63
2021/03/06 00:14:57;;;;;;;2.03;0.98;;;14.90;49.60;;;;;;5071641;28;20125;-63
2021/03/06 00:17:22;;;;;;;3.35;1.55;;;15.10;49.80;;;;;;5071308;28;20021;-63
2021/03/06 00:19:48;;;;;;;2.08;1.20;;;14.90;49.70;;;;;;5072669;28;20055;-63
2021/03/06 00:22:14;;;;;;;2.38;1.20;;;14.90;49.70;;;;;;5071535;28;20437;-63
2021/03/06 00:24:39;;;;;;;3.55;1.15;;;14.80;49.80;;;;;;5071246;28;20032;-63
2021/03/06 00:27:05;;;;;;;2.05;0.90;;;14.50;70.00;;;;;;5071561;28;20049;-63
2021/03/06 00:29:30;;;;;;;4.32;1.33;;;14.80;49.80;;;;;;5071197;28;20029;-63
2021/03/06 00:31:56;;;;;;;2.08;1.23;;;14.80;49.90;;;;;;5071185;28;20021;-64
2021/03/06 00:34:22;;;;;;;3.28;1.27;;;14.80;49.90;;;;;;5071277;28;20048;-63
2021/03/06 00:36:47;;;;;;;2.25;1.25;;;14.80;49.90;;;;;;5071387;28;20024;-63
2021/03/06 00:39:13;;;;;;;3.78;1.23;;;14.70;50.00;;;;;;5074967;28;20020;-63
2021/03/06 00:41:38;;;;;;;3.38;1.52;;;14.70;50.00;;;;;;5074914;28;20103;-63
2021/03/06 00:44:04;;;;;;;3.42;1.33;;;14.70;50.00;;;;;;5075155;28;20020;-63
2021/03/06 00:46:30;;;;;;;3.35;1.50;;;14.70;50.00;;;;;;5075241;28;20518;-63
2021/03/06 00:48:55;;;;;;;2.72;1.30;;;14.20;49.80;;;;;;5075129;28;20024;-63
2021/03/06 00:51:21;;;;;;;2.80;1.20;;;14.70;50.20;;;;;;5056858;28;20437;-63
2021/03/06 00:53:47;;;;;;;1.85;0.95;;;14.60;50.20;;;;;;5074654;28;20033;-63
2021/03/06 00:56:13;;;;;;;2.53;1.17;;;14.60;50.20;;;;;;5074645;28;20032;-63
2021/03/06 00:58:38;;;;;;;3.03;1.55;;;14.60;50.10;;;;;;5074531;28;20024;-64
2021/03/06 01:01:05;;;;;;;2.63;1.10;;;14.60;50.10;;;;;;5074523;28;20103;-63
2021/03/06 01:03:31;;;;;;;1.80;1.05;;;14.60;50.20;;;;;;5074667;28;20039;-63
2021/03/06 01:05:57;;;;;;;1.88;1.10;;;14.60;50.20;;;;;;5074567;28;20367;-63
2021/03/06 01:08:23;;;;;;;1.80;0.90;;;14.60;50.30;;;;;;5074540;28;20140;-63
2021/03/06 01:10:49;;;;;;;3.30;1.50;;;14.60;50.30;;;;;;5056373;28;20017;-63
2021/03/06 01:13:14;;;;;;;2.80;1.15;;;14.50;50.30;;;;;;5074285;28;20036;-62
2021/03/06 01:15:40;;;;;;;2.63;1.17;;;14.50;50.30;;;;;;5074220;28;20031;-63
2021/03/06 01:18:07;;;;;;;2.85;1.17;;;14.40;71.60;;;;;;5074138;28;20033;-62
2021/03/06 01:20:33;;;;;;;2.15;1.23;;;14.50;70.70;;;;;;5075370;28;20048;-63
2021/03/06 01:22:59;;;;;;;2.33;1.10;;;14.40;70.80;;;;;;5074044;28;20082;-63
2021/03/06 01:25:24;;;;;;;4.90;1.67;;;14.40;50.40;;;;;;5074265;28;20044;-63
2021/03/06 01:27:50;;;;;;;2.80;1.33;;;15.20;50.80;;;;;;5074283;28;20023;-63
2021/03/06 01:30:17;;;;;;;2.63;1.30;;;14.40;50.40;;;;;;5074094;28;20497;-63
2021/03/06 01:32:43;;;;;;;3.80;1.40;;;14.40;50.40;;;;;;5073750;28;20036;-63
2021/03/06 01:35:10;;;;;;;4.13;1.20;;;14.40;50.50;;;;;;5073784;28;20686;-63
2021/03/06 01:37:38;;;;;;;1.50;0.98;;;14.40;50.50;;;;;;5073678;28;20024;-63
2021/03/06 01:40:09;;;;;;;2.53;1.23;;;14.40;50.50;;;;;;5073741;28;20027;-63
2021/03/06 01:42:35;;;;;;;2.75;1.42;;;14.40;50.60;;;;;;5073787;28;20132;-63
2021/03/06 01:45:01;;;;;;;3.40;1.17;;;14.30;50.50;;;;;;5055649;28;20052;-63
2021/03/06 01:47:27;;;;;;;3.53;1.40;;;14.30;50.60;;;;;;5073760;28;20063;-62
2021/03/06 01:49:53;;;;;;;2.83;1.30;;;14.30;50.60;;;;;;5072714;28;20021;-63
2021/03/06 01:52:26;;;;;;;3.63;1.52;;;14.20;50.60;;;;;;5073387;28;20035;-63
2021/03/06 01:54:53;;;;;;;2.03;1.23;;;14.30;50.70;;;;;;5073474;28;20025;-63
2021/03/06 01:57:19;;;;;;;2.75;1.48;;;14.30;50.70;;;;;;5073667;28;20025;-62
2021/03/06 01:59:45;;;;;;;1.65;1.20;;;14.30;50.70;;;;;;5073603;28;20740;-63
2021/03/06 02:02:12;;;;;;;2.58;1.50;;;14.30;50.80;;;;;;5073610;28;20028;-63
2021/03/06 02:04:38;;;;;;;3.08;1.30;;;14.20;50.60;;;;;;5073252;28;20028;-63
2021/03/06 02:07:03;;;;;;;1.65;1.27;;;14.20;71.00;;;;;;5073587;28;20371;-62
2021/03/06 02:09:29;;;;;;;4.20;1.50;;;14.20;50.70;;;;;;5073467;28;20023;-63
2021/03/06 02:12:01;;;;;;;1.88;1.17;;;14.20;50.70;;;;;;5073193;28;20668;-63
2021/03/06 02:14:52;;;;;;;3.28;1.30;;;14.20;50.70;;;;;;5073459;28;20564;-63
2021/03/06 02:17:23;;;;;;;;;;;14.20;50.70;;;;;;5073677;28;20401;-62
2021/03/06 02:20:15;;;;;;;4.47;1.50;;;14.20;50.70;;;;;;5073867;28;19913;-63
2021/03/06 02:23:02;;;;;;;2.90;1.13;;;14.10;50.70;;;;;;5067810;28;20576;-63
2021/03/06 02:26:01;;;;;;;1.95;1.05;;;14.10;50.80;;;;;;5073158;28;20063;-63
2021/03/06 02:28:49;;;;;;;2.22;1.48;;;14.10;50.70;;;;;;5072828;28;20032;-64
2021/03/06 02:31:15;;;;;;;1.65;0.85;;;14.10;50.80;;;;;;5073098;28;20032;-63
2021/03/06 02:33:49;;;;;;;2.33;1.00;;;14.10;50.80;;;;;;5073017;28;20040;-63
2021/03/06 02:36:19;;;;;;;3.35;1.30;;;14.10;50.90;;;;;;5072955;28;20021;-63
2021/03/06 02:38:47;;;;;;;2.83;1.02;;;14.10;50.90;;;;;;5072811;28;20379;-62
2021/03/06 02:41:13;;;;;;;1.65;1.00;;;14.10;50.90;;;;;;5072581;28;20031;-63
2021/03/06 02:43:42;;;;;;;3.35;1.23;;;14.00;50.90;;;;;;5054390;28;20013;-62
2021/03/06 02:46:08;;;;;;;3.25;1.10;;;14.00;50.90;;;;;;5072382;28;20146;-62
2021/03/06 02:48:35;;;;;;;3.05;1.20;;;14.00;50.90;;;;;;5072290;28;20486;-63
2021/03/06 02:51:01;;;;;;;3.53;1.33;;;14.00;51.00;;;;;;5072604;28;20123;-62
2021/03/06 02:53:27;;;;;;;3.00;1.50;;;13.90;50.90;;;;;;5072150;28;20039;-62
2021/03/06 02:55:53;;;;;;;4.10;1.58;;;14.00;51.00;;;;;;5072112;28;20029;-62
2021/03/06 02:58:56;;;;;;;1.83;1.35;;;14.00;51.00;;;;;;5054328;28;20074;-63
2021/03/06 03:01:22;;;;;;;2.60;1.13;;;14.00;51.00;;;;;;5054024;28;20382;-62
2021/03/06 03:03:53;;;;;;;2.63;1.50;;;13.70;50.90;;;;;;5072283;28;20025;-62
2021/03/06 03:06:38;;;;;;;3.50;1.20;;;13.90;51.00;;;;;;5071922;28;20028;-63
2021/03/06 03:09:24;;;;;;;2.15;1.17;;;13.70;72.00;;;;;;5072065;28;20039;-62
2021/03/06 03:12:13;;;;;;;5.45;1.48;;;13.90;51.00;;;;;;5072189;28;20040;-62
2021/03/06 03:15:11;;;;;;;2.92;1.38;;;13.90;51.30;;;;;;5071673;28;20016;-63
2021/03/06 03:17:43;;;;;;;2.13;1.17;;;13.90;51.00;;;;;;5072206;28;20043;-62
2021/03/06 03:20:24;;;;;;;3.08;1.67;;;13.80;51.00;;;;;;5072809;28;20388;-63
2021/03/06 03:22:55;;;;;;;2.90;1.38;;;13.80;51.00;;;;;;5053697;28;20119;-62
2021/03/06 03:25:21;;;;;;;3.03;1.30;;;13.90;71.70;;;;;;5071994;28;20028;-62
2021/03/06 03:27:55;;;;;;;3.35;1.42;;;13.50;71.40;;;;;;5071991;28;20079;-62
2021/03/06 03:30:21;;;;;;;1.95;1.38;;;13.80;51.10;;;;;;5072131;28;20029;-62
2021/03/06 03:32:49;;;;;;;2.13;1.20;;;13.80;51.10;;;;;;5053854;28;20024;-62
2021/03/06 03:35:16;;;;;;;3.08;1.20;;;13.80;51.20;;;;;;5071840;28;20471;-62
2021/03/06 03:37:43;;;;;;;2.55;1.58;;;13.80;51.80;;;;;;5071978;28;20024;-63
2021/03/06 03:40:13;;;;;;;1.58;1.13;;;13.80;71.60;;;;;;5071702;28;20016;-63
2021/03/06 03:42:39;;;;;;;2.30;1.27;;;13.70;51.10;;;;;;5071692;28;20478;-62
2021/03/06 03:45:07;;;;;;;3.17;1.42;;;13.70;51.20;;;;;;5071939;28;20020;-63
2021/03/06 03:47:34;;;;;;;3.25;1.40;;;13.70;51.10;;;;;;5071609;28;20013;-62
2021/03/06 03:50:00;;;;;;;2.75;1.23;;;13.60;72.20;;;;;;5071855;28;20111;-62
2021/03/06 03:52:25;;;;;;;3.97;1.45;;;13.70;51.20;;;;;;5071608;28;20163;-62
2021/03/06 03:54:51;;;;;;;2.55;1.40;;;13.40;72.90;;;;;;5071912;28;20075;-62
2021/03/06 03:57:17;;;;;;;3.20;1.33;;;13.70;51.20;;;;;;5071834;28;20467;-62
2021/03/06 03:59:43;;;;;;;1.75;1.20;;;13.70;51.30;;;;;;5071759;28;20032;-62
2021/03/06 04:02:09;;;;;;;2.17;1.20;;;13.70;51.30;;;;;;5071694;28;20548;-62
2021/03/06 04:04:35;;;;;;;1.85;1.00;;;13.50;71.80;;;;;;5071398;28;20020;-62
2021/03/06 04:07:01;;;;;;;2.78;1.30;;;13.60;71.90;;;;;;5071536;28;20443;-62
2021/03/06 04:09:27;;;;;;;2.70;1.20;;;13.60;51.30;;;;;;5071756;28;20067;-62
2021/03/06 04:11:54;;;;;;;2.28;1.25;;;13.70;51.40;;;;;;5071777;28;20082;-62
2021/03/06 04:14:20;;;;;;;3.22;1.30;;;13.60;51.30;;;;;;5075369;28;20020;-62
2021/03/06 04:16:46;;;;;;;1.95;1.02;;;13.60;51.40;;;;;;5075339;28;20162;-62
2021/03/06 04:19:11;;;;;;;3.17;1.15;;;13.60;51.40;;;;;;5076664;27;20028;-62
2021/03/06 04:21:37;;;;;;;2.00;1.10;;;13.60;71.80;;;;;;5075266;28;20025;-62
2021/03/06 04:24:03;;;;;;;3.28;1.55;;;13.60;51.50;;;;;;5075177;28;20027;-62
2021/03/06 04:26:29;;;;;;;2.90;1.08;;;13.80;72.10;;;;;;5057107;28;20071;-62
2021/03/06 04:28:54;;;;;;;2.42;1.15;;;13.50;51.40;;;;;;5075313;28;20024;-62
2021/03/06 04:31:20;;;;;;;1.60;1.00;;;13.50;51.50;;;;;;5075073;28;20024;-62
2021/03/06 04:33:46;;;;;;;2.03;1.00;;;13.20;71.60;;;;;;5075180;28;20044;-62
2021/03/06 04:36:12;;;;;;;0.90;0.70;;;13.50;51.50;;;;;;5075068;28;20086;-62
2021/03/06 04:38:37;;;;;;;1.48;0.93;;;13.50;51.50;;;;;;5074829;28;20078;-62
2021/03/06 04:41:03;;;;;;;2.40;1.10;;;13.50;51.50;;;;;;5074952;28;20021;-62
2021/03/06 04:43:29;;;;;;;2.80;1.50;;;13.50;51.50;;;;;;5074991;28;20493;-62
2021/03/06 04:45:55;;;;;;;3.47;1.33;;;13.50;51.50;;;;;;5074982;28;20371;-62
2021/03/06 04:48:20;;;;;;;2.10;1.13;;;13.50;51.50;;;;;;5074923;28;20063;-63
2021/03/06 04:50:46;;;;;;;4.10;1.55;;;13.40;51.50;;;;;;5057076;28;20066;-62
2021/03/06 04:53:12;;;;;;;2.05;1.00;;;13.30;51.50;;;;;;5074931;28;20518;-62
2021/03/06 04:55:37;;;;;;;3.38;1.35;;;13.40;51.50;;;;;;5074964;28;20044;-62
2021/03/06 04:58:03;;;;;;;1.67;0.90;;;13.40;51.50;;;;;;5075037;28;20021;-62
2021/03/06 05:00:31;;;;;;;3.03;1.20;;;13.40;51.60;;;;;;5074893;28;20105;-62
2021/03/06 05:02:57;;;;;;;1.83;1.15;;;13.70;51.70;;;;;;5074635;28;20024;-62
2021/03/06 05:05:22;;;;;;;2.42;1.17;;;13.40;72.00;;;;;;5074442;28;20031;-62
2021/03/06 05:07:48;;;;;;;2.42;0.82;;;13.40;51.60;;;;;;5074522;28;20024;-62
2021/03/06 05:10:13;;;;;;;2.15;1.27;;;13.40;51.60;;;;;;5074468;28;20029;-62
2021/03/06 05:12:39;;;;;;;1.45;1.02;;;13.30;51.60;;;;;;5074285;28;20041;-62
2021/03/06 05:15:06;;;;;;;2.50;0.90;;;13.10;51.60;;;;;;5074359;28;20039;-62
2021/03/06 05:17:32;;;;;;;3.47;1.00;;;13.30;51.60;;;;;;5074527;28;20032;-62
2021/03/06 05:19:58;;;;;;;2.72;1.30;;;13.40;51.70;;;;;;5056945;28;20043;-62
2021/03/06 05:22:24;;;;;;;2.35;1.05;;;13.30;51.70;;;;;;5074245;28;20055;-62
2021/03/06 05:24:49;;;;;;;1.35;0.98;;;13.30;51.70;;;;;;5072818;28;20455;-62
2021/03/06 05:27:15;;;;;;;3.00;1.50;;;13.30;51.70;;;;;;5074075;28;20039;-62
2021/03/06 05:29:41;;;;;;;2.67;1.00;;;13.20;51.70;;;;;;5074035;28;20029;-62
2021/03/06 05:32:07;;;;;;;1.55;1.10;;;13.30;51.70;;;;;;5073728;28;20035;-62
2021/03/06 05:34:34;;;;;;;2.83;1.15;;;13.20;72.40;;;;;;5074229;28;20074;-62
2021/03/06 05:37:00;;;;;;;1.58;1.20;;;13.20;51.70;;;;;;5074072;28;20024;-62
2021/03/06 05:39:26;;;;;;;3.70;1.80;;;13.20;51.70;;;;;;5074113;28;20505;-62
2021/03/06 05:41:52;;;;;;;1.63;1.05;;;13.20;51.70;;;;;;5074040;28;20047;-62
2021/03/06 05:44:18;;;;;;;1.67;0.82;;;13.30;73.10;;;;;;5073941;28;20104;-62
2021/03/06 05:46:44;;;;;;;1.40;1.02;;;13.20;51.80;;;;;;5073661;28;20036;-62
2021/03/06 05:49:12;;;;;;;2.53;1.20;;;13.20;51.80;;;;;;5073844;28;20021;-62
2021/03/06 05:51:38;;;;;;;1.58;1.02;;;13.20;51.80;;;;;;5073825;28;20078;-62
2021/03/06 05:54:10;;;;;;;1.95;1.10;;;13.20;72.60;;;;;;5073785;28;20028;-62
2021/03/06 05:56:43;;;;;;;1.10;0.80;;;13.10;51.80;;;;;;5073783;28;20032;-62
2021/03/06 05:59:13;;;;;;;2.85;1.08;;;13.00;51.80;;;;;;5073563;28;20108;-62
2021/03/06 06:01:40;;;;;;;3.47;0.98;;;13.20;51.90;;;;;;5073708;28;20375;-62
2021/03/06 06:04:08;;;;;;;1.33;0.70;;;13.10;51.90;;;;;;5073623;28;20032;-62
2021/03/06 06:06:37;;;;;;;3.42;1.02;;;13.10;52.50;;;;;;5073609;28;20025;-62
2021/03/06 06:09:07;;;;;;;2.10;1.00;;;13.30;52.60;;;;;;5073141;28;20024;-62
2021/03/06 06:11:33;;;;;;;1.73;0.85;;;13.20;52.20;;;;;;5073126;28;20025;-62
2021/03/06 06:14:00;;;;;;;2.38;1.20;;;13.60;72.50;;;;;;5073429;28;20356;-61
2021/03/06 06:16:43;;;;;;;1.85;0.85;;;13.70;72.20;;;;;;5072984;28;20020;-62
2021/03/06 06:19:09;;;;;;;2.92;1.13;;;13.70;52.00;;;;;;5055144;28;20578;-62
2021/03/06 06:21:48;;;;;;;2.22;0.80;;;13.80;51.80;;;;;;5074736;27;20073;-62
2021/03/06 06:24:19;;;;;;;1.90;0.80;;;14.00;51.80;;;;;;5072924;28;20107;-62
2021/03/06 06:26:58;;;;;;;0.85;0.82;;;14.10;51.60;;;;;;5073034;28;20040;-62
2021/03/06 06:29:45;;;;;;;2.00;0.90;;;14.20;51.60;;;;;;5072868;28;20100;-62
2021/03/06 06:32:16;;;;;;;1.27;0.73;;;14.20;72.30;;;;;;5055262;28;20051;-62
2021/03/06 06:34:55;;;;;;;1.85;0.93;;;14.20;51.40;;;;;;5072363;28;20024;-62
2021/03/06 06:37:20;;;;;;;1.48;0.70;;;14.40;71.40;;;;;;5072823;28;20029;-61
2021/03/06 06:39:47;;;;;;;1.92;0.70;;;14.40;72.10;;;;;;5072680;28;20039;-64
2021/03/06 06:42:13;;;;;;;1.50;0.70;;;14.40;51.40;;;;;;5072584;28;20056;-62
2021/03/06 06:44:38;;;;;;;2.17;0.88;;;14.50;51.30;;;;;;5072557;28;20059;-62
2021/03/06 06:47:17;;;;;;;2.33;0.70;;;14.40;51.20;;;;;;5072387;28;20025;-62
2021/03/06 06:49:47;;;;;;;1.30;0.68;;;14.60;51.30;;;;;;5072430;28;20021;-63
2021/03/06 06:52:13;;;;;;;1.80;1.10;;;14.60;51.20;;;;;;5072338;28;20028;-62
2021/03/06 06:54:39;;;;;;;1.67;0.80;;;14.70;51.10;;;;;;5072363;28;20036;-62
2021/03/06 06:57:15;;;;;;;2.22;1.05;;;14.70;51.00;;;;;;5054622;28;20148;-62
2021/03/06 07:00:06;;;;;;;2.17;0.60;;;14.70;50.90;;;;;;5054339;28;20399;-62
2021/03/06 07:02:32;;;;;;;1.95;0.70;;;14.80;51.00;;;;;;5057752;28;20028;-62
2021/03/06 07:05:01;;;;;;;0.85;0.70;;;14.70;50.90;;;;;;5054166;28;20525;-62
2021/03/06 07:07:37;;;;;;;1.77;0.70;;;14.80;50.90;;;;;;5072344;28;20063;-62
2021/03/06 07:10:08;;;;;;;1.83;0.60;;;14.80;50.90;;;;;;5054182;28;20028;-62
2021/03/06 07:12:37;;;;;;;1.95;0.93;;;14.90;50.90;;;;;;5072293;28;20029;-63
2021/03/06 07:15:14;;;;;;;3.10;1.08;;;14.90;50.90;;;;;;5072295;28;20044;-63
2021/03/06 07:17:42;;;;;;;1.60;0.90;;;15.10;70.90;;;;;;5072090;28;20024;-63
2021/03/06 07:20:30;;;;;;;1.17;0.70;;;14.90;50.90;;;;;;5055917;27;20041;-63
2021/03/06 07:22:58;;;;;;;1.85;0.75;;;14.90;51.00;;;;;;5071855;28;20074;-63
2021/03/06 07:25:25;;;;;;;2.08;0.85;;;14.90;51.00;;;;;;5071954;28;20024;-63
2021/03/06 07:27:51;;;;;;;1.50;0.70;;;14.90;51.10;;;;;;5071907;28;20480;-63
2021/03/06 07:30:18;;;;;;;1.73;0.90;;;14.80;51.20;;;;;;5072121;28;20100;-62
2021/03/06 07:32:46;;;;;;;1.23;0.70;;;14.80;51.20;;;;;;5071692;28;20040;-63
2021/03/06 07:35:14;;;;;;;2.00;0.77;;;14.80;51.30;;;;;;5072142;28;20017;-62
2021/03/06 07:37:41;;;;;;;1.65;0.80;;;14.80;51.40;;;;;;5071710;28;20032;-63
2021/03/06 07:40:12;;;;;;;1.02;0.82;;;14.80;51.50;;;;;;5071852;28;20059;-63
2021/03/06 07:42:50;;;;;;;1.88;0.80;;;14.70;51.50;;;;;;5072130;28;20017;-63
2021/03/06 07:45:21;;;;;;;2.72;0.70;;;14.70;51.50;;;;;;5072094;28;20032;-61
2021/03/06 07:47:55;;;;;;;2.13;0.77;;;14.70;51.50;;;;;;5070716;28;20029;-62
2021/03/06 07:50:30;;;;;;;0.88;0.52;;;14.70;51.60;;;;;;5071665;28;20100;-61
2021/03/06 07:52:57;;;;;;;1.88;0.80;;;14.70;51.50;;;;;;5071784;28;20033;-62
2021/03/06 07:55:27;;;;;;;4.93;0.80;;;14.70;51.40;;;;;;5071599;28;20155;-62
2021/03/06 07:58:09;;;;;;;2.65;0.82;;;14.70;51.40;;;;;;5071687;28;20027;-63
2021/03/06 08:00:50;;;;;;;3.67;1.15;;;14.60;51.60;;;;;;5071579;28;20021;-62
2021/03/06 08:03:29;;;;;;;2.97;0.90;;;14.60;51.60;;;;;;5070812;28;20076;-62
2021/03/06 08:05:56;;;;;;;1.63;0.77;;;14.50;51.40;;;;;;5070104;28;20059;-62
2021/03/06 08:08:34;;;;;;;3.72;0.90;;;14.50;51.50;;;;;;5071022;28;20171;-62
2021/03/06 08:11:05;;;;;;;3.15;1.13;;;14.50;51.40;;;;;;5071037;28;20036;-62
2021/03/06 08:13:41;;;;;;;1.80;0.70;;;14.50;51.50;;;;;;5071568;28;20040;-62
2021/03/06 08:16:22;;;;;;;1.25;0.82;;;14.50;51.60;;;;;;5071568;28;20623;-62
2021/03/06 08:18:54;;;;;;;3.90;1.17;;;14.50;51.60;;;;;;5071246;28;20103;-62
2021/03/06 08:21:31;;;;;;;2.63;0.73;;;14.70;51.40;;;;;;5072677;28;20056;-62
2021/03/06 08:24:15;;;;;;;1.55;0.55;;;14.80;51.10;;;;;;5071633;28;20445;-62
2021/03/06 08:26:51;;;;;;;3.03;0.77;;;14.90;51.60;;;;;;5071018;28;20064;-62
2021/03/06 08:29:24;;;;;;;3.38;1.55;;;14.90;51.40;;;;;;5071527;28;20012;-62
2021/03/06 08:32:01;;;;;;;3.22;0.90;;;15.00;51.50;;;;;;5071247;28;20064;-60
2021/03/06 08:34:34;;;;;;;1.80;0.70;;;15.00;51.80;;;;;;5053491;28;20040;-61
2021/03/06 08:37:15;;;;;;;3.60;1.10;;;15.10;51.40;;;;;;5071132;28;20402;-61
2021/03/06 08:39:47;;;;;;;6.43;1.00;;;15.20;53.10;;;;;;5071464;28;20099;-62
2021/03/06 08:42:15;;;;;;;1.75;0.93;;;15.30;52.40;;;;;;5071168;28;20104;-61
2021/03/06 08:44:41;;;;;;;1.40;0.80;;;15.30;52.30;;;;;;5071352;28;20031;-61
2021/03/06 08:47:07;;;;;;;4.55;0.90;;;15.40;52.00;;;;;;5070477;28;20032;-62
2021/03/06 08:49:34;;;;;;;2.05;0.90;;;15.50;51.80;;;;;;5051500;28;20048;-54
2021/03/06 08:52:00;;;;;;;8.82;1.30;;;15.60;51.90;;;;;;5070965;28;20028;-62
2021/03/06 08:54:26;;;;;;;8.55;1.00;;;15.70;51.90;;;;;;5071111;28;20025;-61
2021/03/06 08:56:52;;;;;;;4.47;0.98;;;15.70;52.10;;;;;;5071003;28;20020;-61
2021/03/06 08:59:18;;;;;;;4.68;1.20;;;15.80;52.20;;;;;;5055359;28;20075;-61
2021/03/06 09:01:46;;;;;;;4.15;0.77;;;15.50;52.40;;;;;;5074664;28;20016;-60
2021/03/06 09:04:12;;;;;;;3.45;1.08;;;15.80;52.70;;;;;;5074618;28;20028;-61
2021/03/06 09:06:41;;;;;;;16.88;1.00;;;15.90;53.40;;;;;;5056516;28;20134;-61
2021/03/06 09:09:09;;;;;;;5.00;1.00;;;15.90;52.90;;;;;;5074495;28;20029;-61
2021/03/06 09:11:51;;;;;;;4.35;0.98;;;16.00;53.20;;;;;;5074453;28;20060;-61
2021/03/06 09:14:17;;;;;;;6.63;0.80;;;16.00;53.00;;;;;;5056492;28;20529;-61
2021/03/06 09:16:47;;;;;;;2.45;0.70;;;16.10;51.70;;;;;;5074540;28;20024;-61
2021/03/06 09:19:26;;;;;;;1.20;0.50;;;16.10;51.50;;;;;;5074309;28;20028;-61
2021/03/06 09:21:59;;;;;;;3.28;0.70;;;16.50;51.20;;;;;;5075710;27;20056;-61
2021/03/06 09:24:24;;;;;;;4.40;0.98;;;16.70;50.90;;;;;;5074306;28;20450;-61
2021/03/06 09:26:52;;;;;;;3.13;0.77;;;16.80;50.60;;;;;;5074092;28;20044;-62
2021/03/06 09:29:17;;;;;;;2.30;0.70;;;17.00;50.30;;;;;;5074096;28;20116;-61
2021/03/06 09:31:49;;;;;;;2.95;1.10;;;17.10;50.30;;;;;;5074022;28;20498;-61
2021/03/06 09:34:15;;;;;;;2.13;1.02;;;17.10;50.10;;;;;;5056069;28;20032;-62
2021/03/06 09:36:41;;;;;;;3.92;0.77;;;17.20;50.20;;;;;;5074003;28;20596;-61
2021/03/06 09:39:09;;;;;;;2.53;0.60;;;17.20;50.50;;;;;;5056131;28;20033;-61
2021/03/06 09:41:39;;;;;;;2.53;0.68;;;17.30;51.00;;;;;;5074205;28;20024;-61
2021/03/06 09:44:05;;;;;;;;;;;17.10;50.70;;;;;;5074637;28;20032;-61
2021/03/06 09:46:33;;;;;;;5.93;1.00;;;17.40;70.00;;;;;;5074146;28;19923;-61
2021/03/06 09:49:09;;;;;;;2.35;0.70;;;17.40;51.20;;;;;;5074306;28;20029;-60
2021/03/06 09:51:53;;;;;;;2.53;0.55;;;17.40;51.20;;;;;;5056256;28;20482;-61
2021/03/06 09:54:21;;;;;;;4.00;0.50;;;17.50;50.30;;;;;;5073882;28;20570;-61
2021/03/06 09:56:52;;;;;;;5.88;0.80;;;17.50;50.50;;;;;;5073709;28;20016;-61
2021/03/06 09:59:18;;;;;;;;;;;17.50;50.30;;;;;;5074169;28;20016;-61
2021/03/06 10:01:44;;;;;;;2.22;0.70;;;17.60;51.20;;;;;;5073740;28;19911;-61
2021/03/06 10:04:23;;;;;;;5.20;1.20;;;17.60;50.70;;;;;;5073958;28;20115;-61
2021/03/06 10:06:51;;;;;;;4.63;0.73;;;17.50;50.40;;;;;;5073771;28;20020;-60
2021/03/06 10:09:19;;;;;;;1.88;0.73;;;17.70;50.70;;;;;;5073338;28;20024;-61
2021/03/06 10:11:48;;;;;;;1.90;0.65;;;17.80;50.00;;;;;;5072906;28;20052;-61
2021/03/06 10:14:22;;;;;;;1.00;0.50;;;17.80;50.60;;;;;;5073333;28;20058;-61
2021/03/06 10:16:50;;;;;;;2.22;0.52;;;17.80;50.20;;;;;;5073525;28;20095;-60
2021/03/06 10:19:18;;;;;;;6.25;0.70;;;17.90;49.70;;;;;;5073181;28;20039;-62
2021/03/06 10:22:06;;;;;;;2.90;0.55;;;17.70;69.10;;;;;;5074414;27;20044;-61
2021/03/06 10:24:52;;;;;;;4.20;0.80;;;18.00;49.90;;;;;;5072976;28;20039;-60
2021/03/06 10:27:39;;;;;;;3.22;0.55;;;18.00;50.10;;;;;;5072879;28;20052;-61
2021/03/06 10:30:18;;;;;;;6.15;0.88;;;18.10;50.40;;;;;;5073158;28;20127;-59
2021/03/06 10:32:48;;;;;;;2.47;1.10;;;18.10;51.30;;;;;;5072970;28;20163;-61
2021/03/06 10:35:43;;;;;;;2.25;0.63;;;18.10;51.80;;;;;;5073073;28;20017;-62
2021/03/06 10:38:13;;;;;;;2.17;1.08;;;18.10;51.60;;;;;;5072764;28;20025;-62
2021/03/06 10:40:47;;;;;;;2.50;0.68;;;18.10;51.20;;;;;;5072718;28;20028;-62
2021/03/06 10:43:35;;;;;;;4.68;0.85;;;18.00;52.10;;;;;;5072557;28;20019;-62
2021/03/06 10:46:19;;;;;;;3.80;0.43;;;18.00;51.80;;;;;;5072688;28;20023;-62
2021/03/06 10:48:51;;;;;;;2.05;0.60;;;18.00;51.00;;;;;;5072409;28;20107;-62
2021/03/06 10:51:17;;;;;;;3.83;0.95;;;18.00;50.90;;;;;;5072481;28;20491;-62
2021/03/06 10:53:57;;;;;;;6.25;0.77;;;18.00;69.30;;;;;;5072365;28;20043;-62
2021/03/06 10:56:23;;;;;;;2.67;0.40;;;17.90;49.60;;;;;;5072346;28;20036;-62
2021/03/06 10:58:50;;;;;;;4.07;0.80;;;17.90;49.70;;;;;;5072033;28;20148;-62
2021/03/06 11:01:16;;;;;;;1.80;0.40;;;17.80;49.40;;;;;;5072170;28;20031;-62
2021/03/06 11:03:46;;;;;;;2.05;0.60;;;17.80;49.40;;;;;;5072216;28;20024;-63
2021/03/06 11:06:13;;;;;;;3.13;0.70;;;17.80;49.40;;;;;;5072025;28;20062;-62
2021/03/06 11:08:40;;;;;;;2.85;0.60;;;17.70;49.20;;;;;;5072219;28;20021;-62
2021/03/06 11:11:07;;;;;;;4.53;0.75;;;17.70;49.20;;;;;;5072034;28;20115;-63
2021/03/06 11:13:39;;;;;;;2.65;0.57;;;17.60;49.20;;;;;;5071883;28;20124;-63
2021/03/06 11:16:05;;;;;;;3.03;0.70;;;17.70;49.50;;;;;;5072180;28;20097;-62
2021/03/06 11:18:31;;;;;;;4.40;0.43;;;17.50;49.00;;;;;;5072147;28;20020;-63
2021/03/06 11:20:57;;;;;;;3.45;0.60;;;17.50;49.20;;;;;;5073168;27;20633;-63
2021/03/06 11:23:22;;;;;;;1.67;0.68;;;17.40;49.10;;;;;;5071954;28;20036;-63
2021/03/06 11:25:48;;;;;;;2.30;0.60;;;17.30;48.70;;;;;;5072254;28;20439;-63
2021/03/06 11:28:15;;;;;;;1.48;0.50;;;17.30;49.00;;;;;;5071883;28;20143;-62
2021/03/06 11:30:46;;;;;;;2.50;0.47;;;17.00;48.40;;;;;;5071727;28;20031;-62
2021/03/06 11:33:14;;;;;;;2.00;0.50;;;17.40;48.30;;;;;;5071973;28;20040;-62
2021/03/06 11:35:41;;;;;;;2.90;0.65;;;17.30;48.20;;;;;;5072026;28;20381;-62
2021/03/06 11:38:08;;;;;;;1.50;0.68;;;17.40;48.00;;;;;;5071698;28;20063;-62
2021/03/06 11:40:36;;;;;;;2.40;0.57;;;17.30;47.50;;;;;;5053801;28;20471;-64
2021/03/06 11:43:02;;;;;;;1.40;0.55;;;17.20;47.90;;;;;;5071367;28;20115;-64
2021/03/06 11:45:28;;;;;;;6.75;0.50;;;17.20;47.50;;;;;;5071022;28;20036;-64
2021/03/06 11:47:55;;;;;;;1.70;0.40;;;17.10;47.50;;;;;;5070572;28;20092;-64
2021/03/06 11:50:27;;;;;;;2.03;0.30;;;17.10;47.60;;;;;;5053794;28;20040;-65
2021/03/06 11:52:52;;;;;;;3.33;0.95;;;17.00;67.20;;;;;;5071136;28;20029;-65
2021/03/06 11:55:19;;;;;;;1.02;0.30;;;16.90;47.50;;;;;;5071298;28;20044;-64
2021/03/06 11:57:45;;;;;;;1.20;0.50;;;17.00;47.70;;;;;;5071539;28;20044;-64
2021/03/06 12:00:14;;;;;;;2.28;0.30;;;16.90;47.80;;;;;;5071528;28;20478;-65
2021/03/06 12:02:40;;;;;;;1.02;0.52;;;16.80;48.00;;;;;;5071701;28;20025;-64
2021/03/06 12:05:07;;;;;;;6.32;0.70;;;16.80;48.20;;;;;;5071433;28;20379;-64
2021/03/06 12:07:32;;;;;;;1.20;0.40;;;16.80;48.30;;;;;;5071546;28;20051;-64
2021/03/06 12:09:58;;;;;;;4.75;0.50;;;16.40;68.70;;;;;;5071747;28;20048;-64
2021/03/06 12:12:24;;;;;;;2.13;0.47;;;16.60;48.30;;;;;;5071411;28;20040;-64
2021/03/06 12:14:49;;;;;;;0.80;0.25;;;16.60;48.60;;;;;;5071487;28;20032;-65
2021/03/06 12:17:15;;;;;;;1.55;0.35;;;16.60;48.70;;;;;;5071419;28;20017;-64
2021/03/06 12:19:40;;;;;;;1.20;0.30;;;16.50;48.70;;;;;;5053375;28;20017;-64
2021/03/06 12:22:06;;;;;;;1.55;0.30;;;16.50;48.80;;;;;;5072640;28;20053;-64
2021/03/06 12:24:32;;;;;;;1.25;0.30;;;16.40;48.80;;;;;;5071429;28;20613;-64
2021/03/06 12:26:57;;;;;;;1.98;0.43;;;16.40;48.80;;;;;;5071305;28;20103;-64
2021/03/06 12:29:23;;;;;;;2.83;0.50;;;16.40;48.80;;;;;;5071266;28;20031;-64
2021/03/06 12:31:55;;;;;;;1.98;0.35;;;16.30;48.70;;;;;;5071140;28;20534;-64
2021/03/06 12:34:27;;;;;;;0.40;0.30;;;16.30;48.80;;;;;;5073729;28;20028;-62
2021/03/06 12:36:53;;;;;;;1.77;0.50;;;;;;;;;;5075195;28;20024;-63
2021/03/06 12:39:19;;;;;;;1.48;0.40;;;16.20;48.30;;;;;;5074967;28;20462;-61
2021/03/06 12:41:44;;;;;;;0.75;0.30;;;16.20;48.80;;;;;;5075250;28;20438;-64
2021/03/06 12:44:10;;;;;;;1.00;0.45;;;16.20;48.80;;;;;;5074811;28;20459;-63
2021/03/06 12:46:36;;;;;;;4.55;0.93;;;16.20;48.80;;;;;;5074790;28;20064;-63
2021/03/06 12:49:02;;;;;;;1.35;0.40;;;16.10;48.70;;;;;;5078700;28;20028;-62
2021/03/06 12:51:27;;;;;;;0.98;0.40;;;16.10;48.80;;;;;;5095219;28;20024;-62
2021/03/06 12:53:53;;;;;;;2.20;0.40;;;16.10;48.70;;;;;;5095039;28;20033;-62
2021/03/06 12:56:19;;;;;;;1.90;0.30;;;16.00;48.80;;;;;;5095052;28;20493;-62
2021/03/06 12:58:45;;;;;;;3.13;0.52;;;16.00;48.70;;;;;;5094999;28;20055;-63